Time;durP1;ratioP1;P1;durP2;ratioP2;P2;SDS_P1;SDS_P2;PMS_P1;PMS_P2;Temp;Humidity;BMP_temperature;BMP_pressure;BME280_temperature;BME280_humidity;BME280_pressure;Samples;Min_cycle;Max_cycle;Signal;HPM_P1;HPM_P2
2022/04/09 00:01:02;;;;;;;0.00;0.00;;;3.20;99.90;;;;;;6235570;28;20108;-79
2022/04/09 00:04:06;;;;;;;0.00;0.00;;;3.20;99.90;;;;;;6233845;28;20076;-79
2022/04/09 00:07:08;;;;;;;0.00;0.00;;;3.30;99.90;;;;;;6234678;28;20046;-80
2022/04/09 00:10:12;;;;;;;0.00;0.00;;;3.30;99.90;;;;;;6231907;28;20482;-80
2022/04/09 00:13:14;;;;;;;0.00;0.00;;;3.30;99.90;;;;;;6234008;28;20054;-80
2022/04/09 00:16:16;;;;;;;0.00;0.00;;;3.30;99.90;;;;;;6232270;28;20054;-79
2022/04/09 00:19:19;;;;;;;0.00;0.00;;;3.30;99.90;;;;;;6231497;28;20591;-80
2022/04/09 00:22:21;;;;;;;0.00;0.00;;;3.20;99.90;;;;;;6231923;28;20460;-79
2022/04/09 00:25:24;;;;;;;0.00;0.00;;;3.30;99.90;;;;;;6231192;28;20153;-79
2022/04/09 00:28:25;;;;;;;0.00;0.00;;;3.20;99.90;;;;;;6208773;28;20057;-80
2022/04/09 00:31:27;;;;;;;0.00;0.00;;;3.10;99.90;;;;;;6206896;28;20123;-79
2022/04/09 00:34:30;;;;;;;0.00;0.00;;;3.10;99.90;;;;;;6207397;28;20050;-80
2022/04/09 00:37:33;;;;;;;0.00;0.00;;;3.00;99.90;;;;;;6205928;28;20046;-80
2022/04/09 00:40:35;;;;;;;0.00;0.00;;;3.00;99.90;;;;;;6207267;28;20058;-80
2022/04/09 00:43:39;;;;;;;0.00;0.00;;;2.90;99.90;;;;;;6207883;28;20046;-80
2022/04/09 00:46:41;;;;;;;0.00;0.00;;;2.90;99.90;;;;;;6207565;28;20073;-82
2022/04/09 00:49:44;;;;;;;0.00;0.00;;;2.90;99.90;;;;;;6206356;28;20046;-80
2022/04/09 00:52:50;;;;;;;0.00;0.00;;;2.80;99.90;;;;;;6206674;28;20112;-80
2022/04/09 00:59:13;;;;;;;0.00;0.00;;;2.80;99.90;;;;;;6206498;28;20042;-80
2022/04/09 01:02:15;;;;;;;0.00;0.00;;;2.80;99.90;;;;;;6207522;28;20080;-80
2022/04/09 01:05:19;;;;;;;0.00;0.00;;;2.80;99.90;;;;;;6207083;28;20053;-81
2022/04/09 01:08:21;;;;;;;0.00;0.00;;;2.80;99.90;;;;;;6209083;28;20069;-79
2022/04/09 01:11:23;;;;;;;0.00;0.00;;;2.80;99.90;;;;;;6208771;28;20109;-80
2022/04/09 01:14:25;;;;;;;0.00;0.00;;;2.80;99.90;;;;;;6208646;28;20125;-80
2022/04/09 01:17:27;;;;;;;0.00;0.00;;;2.80;99.90;;;;;;6208659;28;20061;-78
2022/04/09 01:20:30;;;;;;;0.00;0.00;;;2.80;99.90;;;;;;6207055;28;20133;-80
2022/04/09 01:23:33;;;;;;;0.00;0.00;;;2.80;99.90;;;;;;6207212;28;20615;-80
2022/04/09 01:26:36;;;;;;;0.00;0.00;;;2.80;99.90;;;;;;6207905;28;20129;-80
2022/04/09 01:29:37;;;;;;;0.00;0.00;;;2.80;99.90;;;;;;6206135;28;20042;-80
2022/04/09 01:32:39;;;;;;;0.00;0.00;;;2.90;99.90;;;;;;6206784;28;20053;-80
2022/04/09 01:35:41;;;;;;;0.00;0.00;;;3.00;99.90;;;;;;6207427;28;20145;-80
2022/04/09 01:38:44;;;;;;;0.00;0.00;;;3.00;99.90;;;;;;6205772;28;20110;-80
2022/04/09 01:41:46;;;;;;;0.00;0.00;;;3.00;99.90;;;;;;6206459;28;20050;-81
2022/04/09 01:44:48;;;;;;;0.00;0.00;;;3.00;99.90;;;;;;6210147;28;20050;-80
2022/04/09 01:47:50;;;;;;;0.00;0.00;;;3.00;99.90;;;;;;6209365;28;20529;-78
2022/04/09 01:50:52;;;;;;;0.00;0.00;;;3.00;99.90;;;;;;6210485;28;20050;-80
2022/04/09 01:53:55;;;;;;;0.00;0.00;;;3.10;99.90;;;;;;6210359;28;20042;-80
2022/04/09 01:56:57;;;;;;;0.00;0.00;;;3.00;99.90;;;;;;6208187;28;20046;-79
2022/04/09 01:59:58;;;;;;;0.00;0.00;;;3.00;99.90;;;;;;6206368;28;20114;-80
2022/04/09 02:03:00;;;;;;;0.00;0.00;;;3.00;99.90;;;;;;6204712;28;20046;-80
2022/04/09 02:06:02;;;;;;;0.00;0.00;;;3.00;99.90;;;;;;6204323;28;20074;-80
2022/04/09 02:09:05;;;;;;;0.00;0.00;;;3.00;99.90;;;;;;6203491;28;20051;-80
2022/04/09 02:12:07;;;;;;;0.00;0.00;;;3.00;99.90;;;;;;6204089;28;20046;-80
2022/04/09 02:15:11;;;;;;;0.00;0.00;;;2.90;99.90;;;;;;6203734;28;20073;-79
2022/04/09 02:18:13;;;;;;;0.00;0.00;;;2.90;99.90;;;;;;6204471;28;20047;-80
2022/04/09 02:21:15;;;;;;;0.00;0.00;;;2.90;99.90;;;;;;6204779;28;20046;-79
2022/04/09 02:24:18;;;;;;;0.00;0.00;;;3.00;99.90;;;;;;6204904;28;20058;-79
2022/04/09 02:27:20;;;;;;;0.00;0.00;;;2.90;99.90;;;;;;6203988;28;20042;-79
2022/04/09 02:30:22;;;;;;;0.00;0.00;;;3.00;99.90;;;;;;6203324;28;20046;-79
2022/04/09 02:33:23;;;;;;;0.00;0.00;;;3.00;99.90;;;;;;6204080;28;20619;-78
2022/04/09 02:36:25;;;;;;;0.00;0.00;;;3.00;99.90;;;;;;6204590;28;20050;-78
2022/04/09 02:39:28;;;;;;;0.00;0.00;;;3.00;99.90;;;;;;6203031;28;20042;-79
2022/04/09 02:42:30;;;;;;;0.00;0.00;;;3.00;99.90;;;;;;6204074;28;20128;-79
2022/04/09 02:45:32;;;;;;;0.00;0.00;;;3.00;99.90;;;;;;6205179;28;20085;-79
2022/04/09 02:48:34;;;;;;;0.00;0.00;;;3.00;99.90;;;;;;6203449;28;20124;-78
2022/04/09 02:51:36;;;;;;;0.00;0.00;;;3.10;99.90;;;;;;6203620;28;20624;-79
2022/04/09 02:54:39;;;;;;;0.00;0.00;;;3.10;99.90;;;;;;6203397;28;20157;-79
2022/04/09 02:57:41;;;;;;;0.80;0.80;;;3.00;99.90;;;;;;6203960;28;20121;-79
2022/04/09 03:00:42;;;;;;;0.00;0.00;;;3.00;99.90;;;;;;6207237;28;20054;-79
2022/04/09 03:03:44;;;;;;;0.00;0.00;;;3.00;99.90;;;;;;6213794;28;20054;-78
2022/04/09 03:06:46;;;;;;;0.00;0.00;;;3.00;99.90;;;;;;6212370;28;20053;-79
2022/04/09 03:09:49;;;;;;;0.00;0.00;;;3.10;99.90;;;;;;6211567;28;20126;-79
2022/04/09 03:12:51;;;;;;;0.00;0.00;;;3.10;99.90;;;;;;6210711;28;20049;-80
2022/04/09 03:15:53;;;;;;;0.00;0.00;;;3.10;99.90;;;;;;6211248;28;20065;-80
2022/04/09 03:18:55;;;;;;;0.00;0.00;;;3.10;99.90;;;;;;6209858;28;20066;-79
2022/04/09 03:21:56;;;;;;;0.00;0.00;;;3.10;99.90;;;;;;6209516;28;20051;-79
2022/04/09 03:25:00;;;;;;;0.00;0.00;;;3.10;99.90;;;;;;6209752;28;20069;-79
2022/04/09 03:28:01;;;;;;;0.00;0.00;;;3.10;99.90;;;;;;6209798;28;20057;-79
2022/04/09 03:31:03;;;;;;;0.00;0.00;;;3.00;99.90;;;;;;6208918;28;20066;-79
2022/04/09 03:34:05;;;;;;;0.00;0.00;;;3.00;99.90;;;;;;6207045;28;20074;-80
2022/04/09 03:37:07;;;;;;;0.00;0.00;;;3.00;99.90;;;;;;6205767;28;20125;-80
2022/04/09 03:40:12;;;;;;;0.00;0.00;;;3.00;99.90;;;;;;6205866;28;20496;-79
2022/04/09 03:43:14;;;;;;;0.00;0.00;;;3.00;99.90;;;;;;6205240;28;20053;-79
2022/04/09 03:46:16;;;;;;;0.00;0.00;;;3.00;99.90;;;;;;6206053;28;20137;-80
2022/04/09 03:49:18;;;;;;;0.00;0.00;;;3.10;99.90;;;;;;6205484;28;20097;-79
2022/04/09 03:52:20;;;;;;;0.00;0.00;;;2.90;99.90;;;;;;6205685;28;20050;-80
2022/04/09 03:55:24;;;;;;;0.00;0.00;;;2.90;99.90;;;;;;6205504;28;20436;-80
2022/04/09 03:58:26;;;;;;;0.00;0.00;;;2.90;99.90;;;;;;6204597;28;20043;-80
2022/04/09 04:01:28;;;;;;;0.00;0.00;;;3.00;99.90;;;;;;6204996;28;20536;-80
2022/04/09 04:04:30;;;;;;;0.00;0.00;;;3.10;99.90;;;;;;6204323;28;20508;-80
2022/04/09 04:07:32;;;;;;;0.00;0.00;;;3.00;99.90;;;;;;6204522;28;20090;-80
2022/04/09 04:10:37;;;;;;;0.00;0.00;;;3.00;99.90;;;;;;6203678;28;20043;-80
2022/04/09 04:13:39;;;;;;;0.30;0.30;;;2.90;99.90;;;;;;6203784;28;20053;-80
2022/04/09 04:16:41;;;;;;;0.00;0.00;;;2.80;99.90;;;;;;6203534;28;20064;-79
2022/04/09 04:19:42;;;;;;;0.00;0.00;;;2.80;99.90;;;;;;6176051;28;20073;-79
2022/04/09 04:22:44;;;;;;;0.00;0.00;;;2.80;99.90;;;;;;6204613;28;20042;-80
2022/04/09 04:25:47;;;;;;;0.00;0.00;;;2.70;99.90;;;;;;6205409;28;20057;-79
2022/04/09 04:28:51;;;;;;;0.00;0.00;;;2.70;99.90;;;;;;6203640;28;20061;-78
2022/04/09 04:31:52;;;;;;;0.00;0.00;;;2.70;99.90;;;;;;6201932;28;20054;-78
2022/04/09 04:34:54;;;;;;;0.00;0.00;;;2.70;99.90;;;;;;6201030;28;20046;-79
2022/04/09 04:37:56;;;;;;;0.00;0.00;;;2.70;99.90;;;;;;6201088;28;20077;-79
2022/04/09 04:41:00;;;;;;;0.00;0.00;;;2.80;99.90;;;;;;6201490;28;20632;-79
2022/04/09 04:44:02;;;;;;;0.00;0.00;;;2.80;99.90;;;;;;6201887;28;20064;-79
2022/04/09 04:47:04;;;;;;;0.00;0.00;;;3.00;99.90;;;;;;6193500;28;20437;-79
2022/04/09 04:50:06;;;;;;;0.00;0.00;;;3.00;99.90;;;;;;6200086;28;20057;-78
2022/04/09 04:53:08;;;;;;;0.00;0.00;;;3.10;99.90;;;;;;6198448;28;20049;-78
2022/04/09 04:56:13;;;;;;;0.80;0.80;;;3.20;99.90;;;;;;6203959;28;20061;-78
2022/04/09 04:59:16;;;;;;;0.00;0.00;;;3.30;99.90;;;;;;6201353;28;20121;-80
2022/04/09 05:02:17;;;;;;;0.00;0.00;;;3.30;99.90;;;;;;6199147;28;20050;-77
2022/04/09 05:05:19;;;;;;;0.00;0.00;;;3.40;99.90;;;;;;6171117;28;20050;-78
2022/04/09 05:08:21;;;;;;;0.00;0.00;;;3.40;99.90;;;;;;6188306;28;20042;-79
2022/04/09 05:11:24;;;;;;;0.10;0.10;;;3.50;99.90;;;;;;6199125;28;20100;-77
2022/04/09 05:14:26;;;;;;;0.00;0.00;;;3.50;99.90;;;;;;6200070;28;20057;-80
2022/04/09 05:17:28;;;;;;;0.00;0.00;;;3.50;99.90;;;;;;6199094;28;20057;-79
2022/04/09 05:20:30;;;;;;;0.00;0.00;;;3.40;99.90;;;;;;6199717;28;20501;-79
2022/04/09 05:23:32;;;;;;;0.00;0.00;;;3.50;99.90;;;;;;6170603;28;20083;-78
2022/04/09 05:26:35;;;;;;;0.00;0.00;;;3.50;99.90;;;;;;6170574;28;20451;-78
2022/04/09 05:29:37;;;;;;;1.45;0.88;;;3.40;99.90;;;;;;6199072;28;20073;-78
2022/04/09 05:32:40;;;;;;;0.00;0.00;;;3.50;99.90;;;;;;6141567;28;20517;-78
2022/04/09 05:35:42;;;;;;;0.00;0.00;;;3.60;99.90;;;;;;6188330;28;20061;-78
2022/04/09 05:38:43;;;;;;;0.15;0.15;;;3.60;99.90;;;;;;6198977;28;20100;-78
2022/04/09 05:41:46;;;;;;;0.00;0.00;;;3.70;99.90;;;;;;6199925;28;20046;-79
2022/04/09 05:44:48;;;;;;;0.00;0.00;;;3.80;99.90;;;;;;6175422;28;20051;-78
2022/04/09 05:47:50;;;;;;;0.00;0.00;;;4.00;99.90;;;;;;6180539;28;20472;-79
2022/04/09 05:50:52;;;;;;;0.00;0.00;;;4.10;99.90;;;;;;6200424;28;20128;-79
2022/04/09 05:53:55;;;;;;;0.00;0.00;;;4.30;99.90;;;;;;6173677;28;20085;-78
2022/04/09 05:56:59;;;;;;;0.00;0.00;;;4.40;99.90;;;;;;6197690;28;20046;-77
2022/04/09 06:00:04;;;;;;;0.00;0.00;;;4.60;99.90;;;;;;6211285;28;20129;-78
2022/04/09 06:03:06;;;;;;;0.00;0.00;;;4.70;99.90;;;;;;6221853;28;20486;-79
2022/04/09 06:06:09;;;;;;;0.00;0.00;;;4.80;99.90;;;;;;6225538;28;20180;-79
2022/04/09 06:09:11;;;;;;;0.00;0.00;;;4.90;99.90;;;;;;6222922;28;20417;-77
2022/04/09 06:12:14;;;;;;;0.00;0.00;;;4.90;99.90;;;;;;6225548;28;20060;-78
2022/04/09 06:15:16;;;;;;;0.00;0.00;;;5.00;99.90;;;;;;6226153;28;20719;-78
2022/04/09 06:18:17;;;;;;;0.00;0.00;;;5.20;99.90;;;;;;6222965;28;20046;-77
2022/04/09 06:21:19;;;;;;;0.00;0.00;;;5.20;99.90;;;;;;6224414;28;20057;-81
2022/04/09 06:24:21;;;;;;;0.45;0.45;;;5.30;99.90;;;;;;6225206;28;20423;-80
2022/04/09 06:27:24;;;;;;;0.00;0.00;;;5.50;99.90;;;;;;6219285;28;20057;-80
2022/04/09 06:30:26;;;;;;;0.13;0.13;;;5.70;99.90;;;;;;6219016;28;20046;-81
2022/04/09 06:33:27;;;;;;;0.00;0.00;;;5.90;99.90;;;;;;6227742;28;20046;-80
2022/04/09 06:36:29;;;;;;;0.00;0.00;;;6.10;99.90;;;;;;6187522;28;20043;-78
2022/04/09 06:39:31;;;;;;;0.00;0.00;;;6.30;99.90;;;;;;6188043;28;20066;-80
2022/04/09 06:42:53;;;;;;;0.00;0.00;;;6.50;99.90;;;;;;6195398;28;20041;-84
2022/04/09 06:45:57;;;;;;;0.00;0.00;;;6.70;99.90;;;;;;6222088;28;20054;-80
2022/04/09 06:48:59;;;;;;;0.10;0.10;;;6.90;99.90;;;;;;6200722;28;20153;-81
2022/04/09 06:52:05;;;;;;;0.40;0.40;;;7.10;99.90;;;;;;6206600;28;20054;-82
2022/04/09 06:58:28;;;;;;;0.00;0.00;;;7.60;99.90;;;;;;6180966;28;20148;-80
2022/04/09 07:01:30;;;;;;;0.00;0.00;;;8.00;99.90;;;;;;6229209;28;20049;-80
2022/04/09 07:04:32;;;;;;;0.00;0.00;;;8.30;99.90;;;;;;6230403;28;20054;-80
2022/04/09 07:07:35;;;;;;;0.00;0.00;;;8.50;99.90;;;;;;6231807;28;20127;-80
2022/04/09 07:10:37;;;;;;;0.00;0.00;;;8.80;99.90;;;;;;6232460;28;20060;-80
2022/04/09 07:13:41;;;;;;;0.98;0.90;;;9.50;99.90;;;;;;6230600;28;20042;-80
2022/04/09 07:16:44;;;;;;;0.00;0.00;;;10.70;99.90;;;;;;6232444;28;20053;-79
2022/04/09 07:19:47;;;;;;;0.00;0.00;;;10.90;99.30;;;;;;6211590;28;20047;-79
2022/04/09 07:22:49;;;;;;;0.00;0.00;;;10.40;98.50;;;;;;6208575;28;20056;-79
2022/04/09 07:25:54;;;;;;;12.43;5.07;;;10.20;98.40;;;;;;6213281;28;20308;-81
2022/04/09 07:28:57;;;;;;;12.55;6.15;;;9.80;97.40;;;;;;6213214;28;20054;-81
2022/04/09 07:31:59;;;;;;;17.55;9.27;;;9.30;98.80;;;;;;6212333;28;20336;-80
2022/04/09 07:35:01;;;;;;;29.60;13.30;;;9.30;99.40;;;;;;6209521;28;20133;-79
2022/04/09 07:38:07;;;;;;;27.98;11.90;;;9.50;99.90;;;;;;6206936;28;20051;-78
2022/04/09 07:41:09;;;;;;;23.25;12.05;;;9.40;99.40;;;;;;6188073;28;20054;-79
2022/04/09 07:44:12;;;;;;;29.60;12.55;;;9.30;99.60;;;;;;6180490;28;20050;-79
2022/04/09 07:47:15;;;;;;;26.25;11.43;;;9.20;99.60;;;;;;6181318;28;20054;-79
2022/04/09 07:50:17;;;;;;;23.17;12.02;;;9.20;99.50;;;;;;6194331;28;20453;-79
2022/04/09 07:53:19;;;;;;;26.55;12.57;;;9.20;99.80;;;;;;6207301;28;20124;-79
2022/04/09 07:56:21;;;;;;;23.33;12.02;;;9.50;99.90;;;;;;6208649;28;20050;-79
2022/04/09 07:59:24;;;;;;;25.65;14.40;;;9.90;99.90;;;;;;6215799;28;20133;-80
2022/04/09 08:02:26;;;;;;;19.98;11.60;;;10.70;99.90;;;;;;6207479;28;20117;-80
2022/04/09 08:05:28;;;;;;;21.80;11.48;;;11.40;99.90;;;;;;6206758;28;20109;-80
2022/04/09 08:08:30;;;;;;;21.02;9.98;;;12.30;99.90;;;;;;6204272;28;20153;-80
2022/04/09 08:11:31;;;;;;;20.67;9.00;;;13.10;99.90;;;;;;6205711;28;20050;-79
2022/04/09 08:14:35;;;;;;;16.63;9.18;;;14.00;99.90;;;;;;6224443;28;20054;-80
2022/04/09 08:17:38;;;;;;;13.73;8.35;;;15.10;99.90;;;;;;6230135;28;20571;-81
2022/04/09 08:20:40;;;;;;;12.57;8.10;;;16.00;99.90;;;;;;6211537;28;20081;-81
2022/04/09 08:23:47;;;;;;;13.70;7.47;;;16.90;99.90;;;;;;6211546;28;20136;-81
2022/04/09 08:26:50;;;;;;;15.05;8.77;;;18.00;99.90;;;;;;6206092;28;20073;-80
2022/04/09 08:29:54;;;;;;;14.05;7.43;;;18.50;99.90;;;;;;6206899;28;20057;-80
2022/04/09 08:33:01;;;;;;;10.98;7.47;;;19.10;99.90;;;;;;6208215;28;20072;-80
2022/04/09 08:36:03;;;;;;;9.65;6.53;;;19.50;99.70;;;;;;6199403;28;20058;-80
2022/04/09 08:39:05;;;;;;;13.43;7.88;;;19.30;96.70;;;;;;6179337;28;20047;-78
2022/04/09 08:42:07;;;;;;;15.93;9.00;;;18.40;97.70;;;;;;6192671;28;20068;-80
2022/04/09 08:45:11;;;;;;;16.17;8.23;;;17.40;94.30;;;;;;6204759;28;20042;-79
2022/04/09 08:48:13;;;;;;;19.65;7.70;;;15.70;93.60;;;;;;6204220;28;20046;-81
2022/04/09 08:51:15;;;;;;;17.15;7.60;;;14.50;95.80;;;;;;6202705;28;20120;-80
2022/04/09 08:54:18;;;;;;;16.02;6.95;;;14.60;96.90;;;;;;6204547;28;20046;-81
2022/04/09 08:57:21;;;;;;;13.02;5.88;;;14.40;95.70;;;;;;6210807;28;20046;-79
2022/04/09 09:00:24;;;;;;;13.50;6.97;;;13.70;95.70;;;;;;6220648;28;20100;-79
2022/04/09 09:03:26;;;;;;;16.65;7.10;;;13.70;95.90;;;;;;6226609;28;20052;-79
2022/04/09 09:06:30;;;;;;;13.43;5.65;;;14.20;96.60;;;;;;6226045;28;20046;-81
2022/04/09 09:09:32;;;;;;;11.05;4.00;;;15.40;97.10;;;;;;6226165;28;20056;-80
2022/04/09 09:12:35;;;;;;;4.40;3.05;;;17.00;93.70;;;;;;6227339;28;20060;-81
2022/04/09 09:15:51;;;;;;;8.23;3.70;;;18.20;91.30;;;;;;6227313;28;20192;-81
2022/04/09 09:18:55;;;;;;;7.78;4.05;;;18.70;80.60;;;;;;6226947;28;20042;-80
2022/04/09 09:21:57;;;;;;;9.10;3.70;;;18.00;79.10;;;;;;6227185;28;20053;-81
2022/04/09 09:25:03;;;;;;;8.57;2.92;;;18.40;77.70;;;;;;6228766;28;20052;-82
2022/04/09 09:28:05;;;;;;;8.73;3.22;;;19.30;77.20;;;;;;6215791;28;20061;-81
2022/04/09 09:31:08;;;;;;;9.02;2.72;;;19.70;70.90;;;;;;6222242;28;20050;-78
2022/04/09 09:34:11;;;;;;;4.78;2.63;;;20.00;71.00;;;;;;6224354;28;20046;-80
2022/04/09 09:37:22;;;;;;;5.68;2.85;;;20.50;66.50;;;;;;6224822;28;20404;-81
2022/04/09 09:40:33;;;;;;;6.30;2.22;;;20.80;66.60;;;;;;6226097;28;20057;-82
2022/04/09 09:43:37;;;;;;;10.10;3.00;;;20.50;63.10;;;;;;6227834;28;20056;-82
2022/04/09 09:46:40;;;;;;;8.93;2.78;;;19.70;63.90;;;;;;6225819;28;20058;-81
2022/04/09 09:49:53;;;;;;;7.50;2.75;;;19.50;62.50;;;;;;6224528;28;20052;-81
2022/04/09 09:53:04;;;;;;;11.98;2.75;;;18.80;65.60;;;;;;6208146;28;20416;-82
2022/04/09 09:56:06;;;;;;;5.68;2.58;;;17.90;65.70;;;;;;6180233;28;20447;-82
2022/04/09 09:59:09;;;;;;;15.68;2.78;;;16.80;66.20;;;;;;6214665;28;20143;-82
2022/04/09 10:02:18;;;;;;;6.93;2.50;;;15.80;66.60;;;;;;6225258;28;20056;-80
2022/04/09 10:05:23;;;;;;;6.93;2.33;;;15.30;68.60;;;;;;6225601;28;20507;-82
2022/04/09 10:08:25;;;;;;;8.60;2.40;;;15.20;70.20;;;;;;6227123;28;20112;-82
2022/04/09 10:11:28;;;;;;;7.93;2.47;;;14.80;68.60;;;;;;6233126;28;20054;-82
2022/04/09 10:14:33;;;;;;;6.28;2.28;;;14.40;72.00;;;;;;6233355;28;20046;-82
2022/04/09 10:17:38;;;;;;;8.00;2.35;;;14.30;72.40;;;;;;6232979;28;20050;-81
2022/04/09 10:20:41;;;;;;;5.60;2.08;;;14.70;70.20;;;;;;6231177;28;20085;-81
2022/04/09 10:23:44;;;;;;;7.00;2.22;;;15.00;70.40;;;;;;6232454;28;20049;-82
2022/04/09 10:26:46;;;;;;;10.27;2.25;;;14.80;68.10;;;;;;6225738;28;20077;-81
2022/04/09 10:29:49;;;;;;;6.88;1.85;;;14.70;69.50;;;;;;6221815;28;20527;-81
2022/04/09 10:32:54;;;;;;;10.77;2.15;;;15.00;68.50;;;;;;6230003;28;20038;-79
2022/04/09 10:36:01;;;;;;;8.63;2.67;;;15.10;67.90;;;;;;6200287;28;20055;-81
2022/04/09 10:39:21;;;;;;;8.35;2.20;;;14.90;68.30;;;;;;6183367;28;20079;-81
2022/04/09 10:42:47;;;;;;;9.55;2.20;;;14.80;71.10;;;;;;6183597;28;20078;-82
2022/04/09 10:46:18;;;;;;;9.23;1.90;;;14.60;70.00;;;;;;6183749;28;20050;-81
2022/04/09 10:49:25;;;;;;;9.73;1.80;;;14.20;70.80;;;;;;6179779;28;20049;-80
2022/04/09 10:52:30;;;;;;;6.88;1.60;;;13.70;66.90;;;;;;6203186;28;20054;-80
2022/04/09 10:55:32;;;;;;;9.38;2.25;;;13.40;69.20;;;;;;6202529;28;20061;-81
2022/04/09 10:59:04;;;;;;;15.77;2.65;;;13.30;71.30;;;;;;6207566;28;20049;-80
2022/04/09 11:02:06;;;;;;;9.13;2.20;;;13.40;70.80;;;;;;6230610;28;20065;-80
2022/04/09 11:05:22;;;;;;;4.50;1.55;;;13.60;71.50;;;;;;6230222;28;20073;-81
2022/04/09 11:08:24;;;;;;;8.27;1.70;;;13.60;70.20;;;;;;6230110;28;20180;-80
2022/04/09 11:11:26;;;;;;;19.95;11.40;;;14.00;71.00;;;;;;6230116;28;20046;-81
2022/04/09 11:14:29;;;;;;;6.60;2.90;;;14.60;67.60;;;;;;6230927;28;20060;-81
2022/04/09 11:17:32;;;;;;;11.63;2.03;;;15.20;65.90;;;;;;6230791;28;20057;-81
2022/04/09 11:20:36;;;;;;;15.80;1.85;;;15.60;62.80;;;;;;6230998;28;20049;-80
2022/04/09 11:23:38;;;;;;;11.48;1.92;;;15.80;63.20;;;;;;6233157;28;20058;-81
2022/04/09 11:26:39;;;;;;;8.13;1.95;;;15.60;61.50;;;;;;6219130;28;20054;-81
2022/04/09 11:29:43;;;;;;;50.55;25.13;;;15.50;62.30;;;;;;6222481;28;20070;-79
2022/04/09 11:32:47;;;;;;;21.95;11.82;;;15.70;62.20;;;;;;6187606;28;20054;-81
2022/04/09 11:35:49;;;;;;;14.25;6.65;;;15.80;61.60;;;;;;6184327;28;20406;-81
2022/04/09 11:38:50;;;;;;;6.75;1.90;;;16.10;62.20;;;;;;6180197;28;20414;-80
2022/04/09 11:41:52;;;;;;;6.10;1.05;;;16.30;56.90;;;;;;6187958;28;20068;-79
2022/04/09 11:44:55;;;;;;;3.60;1.13;;;16.10;58.30;;;;;;6203916;28;20397;-80
2022/04/09 11:47:59;;;;;;;3.42;1.35;;;16.00;57.50;;;;;;6205299;28;20500;-81
2022/04/09 11:54:39;;;;;;;16.45;8.23;;;16.20;56.00;;;;;;6183120;28;20051;-82
2022/04/09 11:57:50;;;;;;;12.43;4.97;;;16.00;57.90;;;;;;6203207;28;20060;-81
2022/04/09 12:00:53;;;;;;;5.57;2.90;;;16.20;55.70;;;;;;6224096;28;20057;-80
2022/04/09 12:03:54;;;;;;;6.35;1.60;;;16.30;56.70;;;;;;6229385;28;20061;-80
2022/04/09 12:06:56;;;;;;;5.28;3.55;;;16.70;57.20;;;;;;6229439;28;20049;-80
2022/04/09 12:09:58;;;;;;;9.70;3.35;;;16.80;55.80;;;;;;6229280;28;20049;-80
2022/04/09 12:13:01;;;;;;;8.20;2.67;;;16.90;56.00;;;;;;6228487;28;20528;-80
2022/04/09 12:16:16;;;;;;;8.98;1.40;;;17.10;51.60;;;;;;6229526;28;20052;-79
2022/04/09 12:19:28;;;;;;;6.70;1.30;;;17.00;51.70;;;;;;6228540;28;20049;-80
2022/04/09 12:22:30;;;;;;;3.95;1.50;;;17.00;54.90;;;;;;6229497;28;20057;-83
2022/04/09 12:25:36;;;;;;;7.10;1.50;;;17.50;55.20;;;;;;6230577;28;20133;-80
2022/04/09 12:28:38;;;;;;;8.98;1.45;;;18.20;51.70;;;;;;6213245;28;20046;-80
2022/04/09 12:31:43;;;;;;;5.85;1.60;;;18.60;51.50;;;;;;6229128;28;20050;-81
2022/04/09 12:35:05;;;;;;;5.03;1.00;;;18.80;47.40;;;;;;6230651;28;20131;-81
2022/04/09 12:38:06;;;;;;;3.08;1.27;;;18.30;48.20;;;;;;6228554;28;20060;-80
2022/04/09 12:41:09;;;;;;;6.10;1.45;;;17.80;52.00;;;;;;6228441;28;20056;-79
2022/04/09 12:44:25;;;;;;;6.22;1.30;;;17.50;51.30;;;;;;6202478;28;20071;-79
2022/04/09 12:47:28;;;;;;;27.75;3.50;;;17.30;53.30;;;;;;6203679;28;20512;-80
2022/04/09 12:50:32;;;;;;;9.85;1.40;;;17.60;52.00;;;;;;6203490;28;20046;-79
2022/04/09 12:53:34;;;;;;;8.68;1.30;;;17.90;53.20;;;;;;6206093;28;20053;-79
2022/04/09 12:56:39;;;;;;;7.20;1.40;;;18.00;53.10;;;;;;6198896;28;20061;-79
2022/04/09 12:59:40;;;;;;;9.35;1.40;;;18.20;54.50;;;;;;6220790;28;20085;-79
2022/04/09 13:02:45;;;;;;;5.25;1.30;;;18.30;53.00;;;;;;6228338;28;20050;-80
2022/04/09 13:05:47;;;;;;;3.92;1.02;;;18.10;50.10;;;;;;6227873;28;20060;-80
2022/04/09 13:08:48;;;;;;;4.00;0.73;;;18.00;49.40;;;;;;6229680;28;20048;-78
2022/04/09 13:11:50;;;;;;;3.72;0.90;;;18.10;47.90;;;;;;6230445;28;20060;-80
2022/04/09 13:14:52;;;;;;;3.42;0.88;;;18.20;46.00;;;;;;6227392;28;20069;-80
2022/04/09 13:17:55;;;;;;;5.72;1.92;;;18.10;47.10;;;;;;6228208;28;20048;-81
2022/04/09 13:20:57;;;;;;;4.38;0.95;;;18.00;47.20;;;;;;6228076;28;20062;-80
2022/04/09 13:23:59;;;;;;;4.82;0.88;;;18.10;47.90;;;;;;6229146;28;20056;-80
2022/04/09 13:27:01;;;;;;;5.40;1.17;;;17.90;44.60;;;;;;6225144;28;20046;-81
2022/04/09 13:30:04;;;;;;;3.67;1.00;;;17.70;46.00;;;;;;6201556;28;20039;-80
2022/04/09 13:33:07;;;;;;;5.47;1.17;;;17.70;44.60;;;;;;6198640;28;20062;-80
2022/04/09 13:36:09;;;;;;;4.88;1.45;;;17.80;45.90;;;;;;6188440;28;20050;-80
2022/04/09 13:39:12;;;;;;;1.58;0.90;;;17.90;44.80;;;;;;6197501;28;20106;-80
2022/04/09 13:42:13;;;;;;;2.65;0.65;;;18.00;43.60;;;;;;6195284;28;20054;-80
2022/04/09 13:45:15;;;;;;;1.67;0.85;;;17.90;42.10;;;;;;6203701;28;20421;-80
2022/04/09 13:48:19;;;;;;;3.50;1.00;;;17.80;44.50;;;;;;6203489;28;20504;-81
2022/04/09 13:51:21;;;;;;;4.82;0.80;;;17.80;42.10;;;;;;6202125;28;20051;-81
2022/04/09 13:54:23;;;;;;;8.50;1.20;;;17.80;43.40;;;;;;6202919;28;20089;-81
2022/04/09 13:57:25;;;;;;;3.22;0.68;;;17.80;44.30;;;;;;6210472;28;20054;-80
2022/04/09 14:00:26;;;;;;;4.28;1.65;;;17.80;44.60;;;;;;6219644;28;20046;-81
2022/04/09 14:03:29;;;;;;;5.95;0.65;;;17.80;43.30;;;;;;6229124;28;20439;-79
2022/04/09 14:06:31;;;;;;;3.17;1.00;;;17.80;44.00;;;;;;6235283;28;20125;-80
2022/04/09 14:09:33;;;;;;;2.20;0.88;;;17.70;44.60;;;;;;6234519;28;20046;-81
2022/04/09 14:12:36;;;;;;;4.05;0.70;;;18.00;44.20;;;;;;6233410;28;20504;-82
2022/04/09 14:15:38;;;;;;;5.13;1.00;;;18.20;44.70;;;;;;6214539;28;20137;-82
2022/04/09 14:18:41;;;;;;;6.65;1.45;;;18.40;45.00;;;;;;6214320;28;20046;-80
2022/04/09 14:21:43;;;;;;;3.90;0.98;;;18.50;43.00;;;;;;6209799;28;20071;-78
2022/04/09 14:24:45;;;;;;;3.38;0.85;;;18.50;42.10;;;;;;6200002;28;20046;-82
2022/04/09 14:27:47;;;;;;;3.00;0.90;;;18.40;41.90;;;;;;6216756;28;20053;-81
2022/04/09 14:30:48;;;;;;;3.67;0.73;;;18.40;43.00;;;;;;6220245;28;20046;-81
2022/04/09 14:33:52;;;;;;;5.00;0.80;;;18.20;42.50;;;;;;6232610;28;20054;-81
2022/04/09 14:36:53;;;;;;;2.90;0.50;;;17.80;40.30;;;;;;6237459;28;20109;-80
2022/04/09 14:39:56;;;;;;;24.70;9.18;;;17.60;40.80;;;;;;6238283;28;20049;-81
2022/04/09 14:42:58;;;;;;;38.80;14.85;;;17.40;40.80;;;;;;6229469;28;20058;-79
2022/04/09 14:46:00;;;;;;;39.60;13.60;;;17.40;40.90;;;;;;6215682;28;20044;-80
2022/04/09 14:49:04;;;;;;;14.93;6.75;;;17.50;40.10;;;;;;6206677;28;20061;-79
2022/04/09 14:58:26;;;;;;;2.60;0.70;;;17.20;39.20;;;;;;6199956;26;20046;-80
2022/04/09 15:01:28;;;;;;;2.28;0.70;;;17.10;39.80;;;;;;6216721;28;20061;-82
2022/04/09 15:04:31;;;;;;;2.03;0.45;;;17.20;40.00;;;;;;6192378;28;20054;-78
2022/04/09 15:07:34;;;;;;;1.90;0.55;;;17.30;40.10;;;;;;6182391;28;20061;-80
2022/04/09 15:10:35;;;;;;;2.90;0.43;;;17.30;40.20;;;;;;6182150;28;20062;-80
2022/04/09 15:13:37;;;;;;;3.97;0.60;;;17.40;39.70;;;;;;6181385;28;20050;-80
2022/04/09 15:16:41;;;;;;;6.25;0.50;;;17.30;39.70;;;;;;6181806;28;20167;-80
2022/04/09 15:19:44;;;;;;;5.30;0.77;;;17.10;39.80;;;;;;6182771;28;20539;-80
2022/04/09 15:22:47;;;;;;;4.25;0.75;;;17.00;39.20;;;;;;6180787;28;20500;-81
2022/04/09 15:25:49;;;;;;;4.30;0.75;;;16.90;40.10;;;;;;6182343;28;20129;-79
2022/04/09 15:28:53;;;;;;;2.63;0.40;;;16.70;39.80;;;;;;6178904;28;20127;-80
2022/04/09 15:31:55;;;;;;;16.63;10.05;;;16.40;39.80;;;;;;6157384;28;20122;-80
2022/04/09 15:34:58;;;;;;;3.28;0.95;;;16.00;41.10;;;;;;6158236;28;20094;-80
2022/04/09 15:38:00;;;;;;;3.97;0.52;;;15.80;41.80;;;;;;6172117;28;20053;-80
2022/04/09 15:41:03;;;;;;;5.35;1.15;;;15.50;42.50;;;;;;6182465;28;20139;-80
2022/04/09 15:44:07;;;;;;;4.07;1.02;;;15.20;42.40;;;;;;6182291;28;20078;-81
2022/04/09 15:47:08;;;;;;;1.65;0.45;;;15.00;43.00;;;;;;6160634;28;20039;-80
2022/04/09 15:50:12;;;;;;;6.20;0.60;;;14.80;42.60;;;;;;6157345;28;20070;-80
2022/04/09 15:53:14;;;;;;;4.25;0.68;;;14.50;42.80;;;;;;6170410;28;20133;-79
2022/04/09 15:56:16;;;;;;;4.18;0.40;;;14.30;41.60;;;;;;6172574;28;20377;-80
2022/04/09 15:59:18;;;;;;;2.15;0.55;;;14.00;42.20;;;;;;6174347;28;20061;-79
2022/04/09 16:02:19;;;;;;;5.25;0.80;;;13.90;42.40;;;;;;6156966;28;20063;-82
2022/04/09 16:05:23;;;;;;;6.10;0.80;;;13.70;43.00;;;;;;6156797;28;20090;-81
2022/04/09 16:08:25;;;;;;;1.98;0.40;;;13.60;43.00;;;;;;6156775;28;20051;-80
2022/04/09 16:11:27;;;;;;;4.43;0.52;;;13.40;43.70;;;;;;6156634;28;20066;-81
2022/04/09 16:14:28;;;;;;;5.00;0.55;;;13.30;44.70;;;;;;6156850;28;20398;-81